Terminal Aerodrome Forecast
Issued by NWS Knoxville/Tri Cities, TN

Current Version | Previous Version | Text Only | Print | Product List | Glossary On
Versions: 1 2 3 4 5 6 7 8 9 10 11 12 13 14 15 16 17 18 19
000
FTUS44 KMRX 311226 AAA
TAFTYS
TAF AMD
KTYS 311226Z 3112/0112 32004KT P6SM BKN060
     FM311800 27007KT P6SM VCSH OVC050
     FM312100 28010KT 6SM -RA BR OVC025
     FM010000 30015G25KT 5SM -SNRA BR OVC015
     FM010900 31016KT 2SM -SN BR OVC015=

USA.gov is the U.S. government's official web portal to all federal, state and local government web resources and services.